Time;durP1;ratioP1;P1;durP2;ratioP2;P2;SDS_P1;SDS_P2;PMS_P1;PMS_P2;Temp;Humidity;BMP_temperature;BMP_pressure;BME280_temperature;BME280_humidity;BME280_pressure;Samples;Min_cycle;Max_cycle;Signal;HPM_P1;HPM_P2
2022/07/28 02:25:40;;;;;;;19.83;10.70;;;;;;;;;;6226040;22;20213;-90
2022/07/28 02:28:50;;;;;;;21.35;11.02;;;;;;;;;;6291547;22;20154;-90
2022/07/28 02:31:58;;;;;;;19.70;9.93;;;;;;;;;;6275120;22;20166;-91
2022/07/28 02:35:06;;;;;;;19.88;10.57;;;;;;;;;;6275565;22;20220;-91
2022/07/28 02:38:13;;;;;;;22.15;10.55;;;;;;;;;;6292137;22;20197;-91
2022/07/28 02:41:24;;;;;;;18.70;10.65;;;;;;;;;;6273934;22;20646;-92
2022/07/28 02:44:31;;;;;;;21.60;10.20;;;;;;;;;;6272661;22;20150;-90
2022/07/28 02:47:41;;;;;;;16.55;9.50;;;;;;;;;;6269462;22;20484;-90
2022/07/28 02:50:46;;;;;;;18.10;9.70;;;;;;;;;;6271039;22;20166;-89
2022/07/28 02:53:51;;;;;;;17.42;9.98;;;;;;;;;;6269944;22;20213;-90
2022/07/28 02:56:59;;;;;;;17.60;10.07;;;;;;;;;;6269487;22;20165;-91
2022/07/28 03:00:05;;;;;;;18.73;10.27;;;;;;;;;;6272339;22;20150;-91
2022/07/28 03:03:11;;;;;;;18.60;10.57;;;;;;;;;;6272224;22;20174;-90
2022/07/28 03:06:17;;;;;;;17.95;9.82;;;;;;;;;;6290605;22;20178;-90
2022/07/28 03:09:21;;;;;;;19.65;10.25;;;;;;;;;;6272563;22;20281;-92
2022/07/28 03:12:28;;;;;;;21.65;10.43;;;;;;;;;;6290237;22;20154;-90
2022/07/28 03:15:33;;;;;;;19.88;10.57;;;;;;;;;;6271530;22;20281;-91
2022/07/28 03:18:38;;;;;;;18.83;10.48;;;;;;;;;;6271403;22;20177;-90
2022/07/28 03:21:48;;;;;;;22.88;10.70;;;;;;;;;;6289627;22;20219;-89
2022/07/28 03:24:54;;;;;;;20.30;11.00;;;;;;;;;;6273682;22;20186;-90
2022/07/28 03:28:01;;;;;;;19.67;10.23;;;;;;;;;;6273172;22;20193;-91
2022/07/28 03:31:08;;;;;;;22.20;10.40;;;;;;;;;;6289211;22;20612;-89
2022/07/28 03:34:14;;;;;;;20.60;11.10;;;;;;;;;;6273182;22;20150;-90
2022/07/28 03:37:21;;;;;;;22.92;11.15;;;;;;;;;;6290147;22;20504;-90
2022/07/28 03:40:28;;;;;;;19.42;10.88;;;;;;;;;;6291474;22;20169;-90
2022/07/28 03:43:35;;;;;;;21.40;10.60;;;;;;;;;;6273466;22;20193;-90
2022/07/28 03:46:44;;;;;;;24.48;10.50;;;;;;;;;;6289711;22;20161;-92
2022/07/28 03:49:49;;;;;;;22.70;10.65;;;;;;;;;;6290741;22;20155;-90
2022/07/28 03:52:55;;;;;;;21.88;11.02;;;;;;;;;;6271931;22;20170;-89
2022/07/28 03:56:02;;;;;;;19.70;10.60;;;;;;;;;;6291068;22;20162;-90
2022/07/28 03:59:10;;;;;;;21.85;10.80;;;;;;;;;;6273187;22;20186;-90
2022/07/28 04:06:35;;;;;;;19.75;11.35;;;;;;;;;;6292210;22;20157;-91
2022/07/28 04:09:39;;;;;;;19.70;11.23;;;;;;;;;;6273042;22;20594;-92
2022/07/28 04:12:46;;;;;;;22.30;10.73;;;;;;;;;;6272387;22;20158;-91
2022/07/28 04:15:52;;;;;;;22.08;10.77;;;;;;;;;;6289186;22;20170;-91
2022/07/28 04:18:58;;;;;;;17.65;10.63;;;;;;;;;;6271634;22;20166;-89
2022/07/28 04:22:03;;;;;;;19.63;11.52;;;;;;;;;;6272588;22;20237;-90
2022/07/28 04:25:08;;;;;;;22.80;11.60;;;;;;;;;;6290717;22;20256;-91
2022/07/28 04:28:14;;;;;;;23.20;11.40;;;;;;;;;;6292970;22;20624;-91
2022/07/28 04:31:21;;;;;;;23.10;11.40;;;;;;;;;;6275114;22;20165;-91
2022/07/28 04:34:48;;;;;;;22.83;12.02;;;;;;;;;;6279191;22;20203;-93
2022/07/28 04:37:57;;;;;;;19.08;10.15;;;;;;;;;;6293325;22;20166;-90
2022/07/28 04:41:21;;;;;;;16.90;10.38;;;;;;;;;;6283906;22;20154;-92
2022/07/28 04:44:26;;;;;;;24.50;10.40;;;;;;;;;;6273864;22;20498;-90
2022/07/28 04:47:33;;;;;;;23.88;11.57;;;;;;;;;;6275342;22;20232;-91
2022/07/28 04:50:40;;;;;;;21.27;9.40;;;;;;;;;;6294143;22;20196;-92
2022/07/28 04:53:46;;;;;;;16.70;10.00;;;;;;;;;;6277115;22;20169;-93
2022/07/28 04:56:51;;;;;;;16.80;9.05;;;;;;;;;;6276466;22;20261;-91
2022/07/28 04:59:57;;;;;;;15.20;9.05;;;;;;;;;;6275543;22;20158;-90
2022/07/28 05:03:13;;;;;;;17.38;9.65;;;;;;;;;;6277107;22;20226;-90
2022/07/28 05:06:22;;;;;;;16.35;9.35;;;;;;;;;;6280112;22;20161;-91
2022/07/28 05:09:27;;;;;;;15.57;8.35;;;;;;;;;;6278567;22;20166;-90
2022/07/28 05:12:33;;;;;;;19.05;9.73;;;;;;;;;;6278650;22;20234;-91
2022/07/28 05:15:38;;;;;;;18.83;9.43;;;;;;;;;;6278165;22;20174;-92
2022/07/28 05:18:46;;;;;;;16.60;8.27;;;;;;;;;;6278087;22;20161;-91
2022/07/28 05:25:15;;;;;;;18.08;8.52;;;;;;;;;;6278344;22;20189;-90
2022/07/28 05:28:21;;;;;;;16.52;7.35;;;;;;;;;;6277172;22;20188;-90
2022/07/28 05:31:40;;;;;;;16.80;7.30;;;;;;;;;;6276913;22;20153;-90
2022/07/28 05:38:07;;;;;;;14.02;5.65;;;;;;;;;;6275596;22;20170;-90
2022/07/28 05:41:12;;;;;;;12.88;5.47;;;;;;;;;;6275663;22;20161;-90
2022/07/28 05:44:26;;;;;;;11.80;5.03;;;;;;;;;;6275211;22;20213;-90
2022/07/28 05:47:41;;;;;;;10.52;5.10;;;;;;;;;;6255852;22;20197;-90
2022/07/28 05:50:53;;;;;;;10.88;5.07;;;;;;;;;;6276717;22;20201;-90
2022/07/28 05:54:01;;;;;;;13.88;4.90;;;;;;;;;;6279048;22;20262;-89
2022/07/28 05:57:07;;;;;;;15.68;5.10;;;;;;;;;;6282241;22;20169;-92
2022/07/28 06:00:13;;;;;;;10.52;3.72;;;;;;;;;;6276533;22;20169;-91
2022/07/28 14:20:05;;;;;;;5.55;2.38;;;;;;;;;;6164384;22;20209;-91
2022/07/28 14:23:11;;;;;;;4.82;2.25;;;;;;;;;;6274456;22;20207;-90
2022/07/28 14:26:17;;;;;;;7.68;2.70;;;;;;;;;;6273158;22;20164;-89
2022/07/28 14:29:24;;;;;;;3.47;2.10;;;;;;;;;;6271918;22;20156;-89
2022/07/28 14:32:29;;;;;;;4.85;3.47;;;;;;;;;;6271135;22;20208;-90
2022/07/28 14:35:37;;;;;;;4.22;2.40;;;;;;;;;;6270463;22;20666;-90
2022/07/28 14:38:42;;;;;;;4.65;2.03;;;;;;;;;;6273168;22;20192;-91
2022/07/28 14:41:47;;;;;;;5.97;2.15;;;;;;;;;;6271101;22;20208;-90
2022/07/28 14:45:07;;;;;;;7.50;2.38;;;;;;;;;;6270581;22;20233;-89
2022/07/28 14:48:12;;;;;;;4.70;2.30;;;;;;;;;;6270580;22;20188;-87
2022/07/28 14:51:19;;;;;;;9.25;2.72;;;;;;;;;;6271390;22;20165;-92
2022/07/28 14:54:24;;;;;;;6.47;2.50;;;;;;;;;;6271292;22;20214;-90
2022/07/28 14:57:31;;;;;;;3.88;2.50;;;;;;;;;;6273159;22;20169;-91
2022/07/28 15:00:37;;;;;;;6.07;2.40;;;;;;;;;;6273246;22;20172;-88
2022/07/28 15:03:44;;;;;;;4.80;2.65;;;;;;;;;;6272224;22;20157;-91
2022/07/28 15:06:51;;;;;;;3.97;2.40;;;;;;;;;;6272089;22;20165;-90
2022/07/28 15:09:56;;;;;;;3.85;2.50;;;;;;;;;;6274130;22;20240;-91
2022/07/28 15:13:02;;;;;;;3.47;2.47;;;;;;;;;;6272572;22;20623;-90
2022/07/28 15:16:07;;;;;;;4.25;2.25;;;;;;;;;;6271619;22;20161;-89
2022/07/28 15:19:14;;;;;;;4.93;2.30;;;;;;;;;;6270985;22;20177;-92
2022/07/28 15:22:20;;;;;;;7.53;2.30;;;;;;;;;;6272738;22;20165;-92
2022/07/28 15:25:25;;;;;;;4.22;2.20;;;;;;;;;;6271274;22;20229;-89
2022/07/28 15:28:31;;;;;;;4.68;2.70;;;;;;;;;;6272447;22;20170;-92
2022/07/28 15:31:36;;;;;;;6.72;2.58;;;;;;;;;;6273873;22;20165;-90
2022/07/28 15:34:42;;;;;;;3.95;2.60;;;;;;;;;;6273084;22;20625;-89
2022/07/28 15:37:49;;;;;;;19.73;12.43;;;;;;;;;;6270514;22;20281;-93
2022/07/28 15:40:57;;;;;;;6.65;2.50;;;;;;;;;;6290743;22;20165;-89
2022/07/28 15:44:02;;;;;;;4.82;2.75;;;;;;;;;;6271741;22;20174;-90
2022/07/28 15:47:07;;;;;;;5.97;2.58;;;;;;;;;;6274174;22;20150;-90
2022/07/28 15:50:13;;;;;;;3.65;2.80;;;;;;;;;;6273348;22;20239;-90
2022/07/28 15:53:20;;;;;;;5.75;2.70;;;;;;;;;;6273541;22;20158;-89
2022/07/28 15:56:27;;;;;;;5.50;2.60;;;;;;;;;;6272701;22;20172;-90
2022/07/28 15:59:32;;;;;;;6.63;2.38;;;;;;;;;;6275565;22;20220;-90
2022/07/28 16:02:43;;;;;;;7.18;2.40;;;;;;;;;;6275995;22;20238;-89
2022/07/28 16:05:49;;;;;;;5.35;2.85;;;;;;;;;;6277959;22;20169;-90
2022/07/28 16:08:57;;;;;;;4.47;2.60;;;;;;;;;;6277010;22;20169;-90
2022/07/28 16:12:02;;;;;;;4.57;2.40;;;;;;;;;;6277033;22;20481;-90
2022/07/28 16:15:11;;;;;;;5.38;2.90;;;;;;;;;;6275161;22;20178;-89
2022/07/28 16:18:20;;;;;;;11.50;2.47;;;;;;;;;;6274530;22;20521;-89
2022/07/28 16:21:25;;;;;;;7.25;2.88;;;;;;;;;;6275862;22;20189;-89
2022/07/28 16:24:34;;;;;;;4.53;2.60;;;;;;;;;;6273138;22;20169;-91
2022/07/28 16:27:39;;;;;;;5.63;2.70;;;;;;;;;;6275540;22;20165;-90
2022/07/28 16:30:54;;;;;;;6.53;2.78;;;;;;;;;;6273607;22;20205;-90
2022/07/28 16:34:01;;;;;;;6.57;3.10;;;;;;;;;;6273409;22;20169;-90
2022/07/28 16:37:08;;;;;;;4.15;2.80;;;;;;;;;;6273696;22;20178;-92
2022/07/28 16:40:15;;;;;;;5.20;2.53;;;;;;;;;;6272409;22;20190;-90
2022/07/28 16:43:20;;;;;;;4.55;2.83;;;;;;;;;;6272366;22;20193;-89
2022/07/28 16:50:23;;;;;;;7.07;2.55;;;;;;;;;;6292064;22;20173;-89
2022/07/28 16:53:28;;;;;;;4.40;3.10;;;;;;;;;;6272096;22;20166;-89
2022/07/28 16:56:34;;;;;;;6.07;2.70;;;;;;;;;;6272225;22;20166;-89
2022/07/28 16:59:41;;;;;;;7.68;2.78;;;;;;;;;;6274044;22;20205;-89
2022/07/28 17:02:46;;;;;;;4.43;2.78;;;;;;;;;;6271071;22;20281;-90
2022/07/28 17:05:54;;;;;;;5.68;3.00;;;;;;;;;;6271299;22;20193;-89
2022/07/28 17:09:00;;;;;;;6.13;2.90;;;;;;;;;;6271523;22;20173;-89
2022/07/28 17:12:07;;;;;;;7.53;3.13;;;;;;;;;;6272085;22;20192;-90
2022/07/28 17:15:15;;;;;;;6.07;2.63;;;;;;;;;;6275296;22;20249;-90
2022/07/28 17:18:20;;;;;;;7.80;3.08;;;;;;;;;;6274549;22;20170;-90
2022/07/28 17:21:26;;;;;;;5.40;3.13;;;;;;;;;;6274374;22;20247;-88
2022/07/28 17:24:32;;;;;;;6.22;3.05;;;;;;;;;;6273100;22;20165;-90
2022/07/28 17:27:42;;;;;;;6.63;2.92;;;;;;;;;;6275208;22;20185;-91
2022/07/28 17:30:48;;;;;;;8.63;3.10;;;;;;;;;;6278743;22;20199;-88
2022/07/28 17:33:54;;;;;;;4.82;2.88;;;;;;;;;;6293548;22;20246;-91
2022/07/28 17:37:02;;;;;;;9.00;5.10;;;;;;;;;;6275979;22;20204;-90
2022/07/28 17:47:12;;;;;;;5.38;2.92;;;;;;;;;;6281368;22;20212;-91
2022/07/28 17:50:18;;;;;;;6.78;3.38;;;;;;;;;;6294340;22;20213;-89
2022/07/28 17:53:24;;;;;;;9.05;3.40;;;;;;;;;;6276728;22;20236;-88
2022/07/28 17:56:30;;;;;;;7.03;3.88;;;;;;;;;;6276280;22;20200;-91
2022/07/28 17:59:36;;;;;;;5.03;3.42;;;;;;;;;;6275892;22;20263;-92
2022/07/28 18:02:41;;;;;;;6.25;3.50;;;;;;;;;;6276280;22;20165;-92
2022/07/28 18:05:47;;;;;;;4.70;3.20;;;;;;;;;;6276031;22;20169;-89
2022/07/28 18:08:53;;;;;;;6.50;3.30;;;;;;;;;;6274488;22;20165;-91
2022/07/28 18:11:59;;;;;;;5.60;3.55;;;;;;;;;;6274666;22;20218;-87
2022/07/28 18:15:07;;;;;;;9.43;4.03;;;;;;;;;;6272888;22;20157;-90
2022/07/28 18:18:18;;;;;;;7.63;3.50;;;;;;;;;;6272982;22;20149;-91
2022/07/28 18:21:27;;;;;;;5.55;3.42;;;;;;;;;;6273594;22;20266;-90
2022/07/28 18:24:36;;;;;;;8.27;3.50;;;;;;;;;;6272911;22;20174;-89
2022/07/28 18:27:54;;;;;;;5.88;3.40;;;;;;;;;;6276479;22;20162;-90
2022/07/28 18:31:03;;;;;;;7.20;4.07;;;;;;;;;;6300458;22;20380;-91
2022/07/28 18:34:08;;;;;;;10.82;5.35;;;;;;;;;;6274454;22;20177;-90
2022/07/28 18:37:16;;;;;;;9.38;4.28;;;;;;;;;;6275472;22;20166;-90
2022/07/28 18:40:23;;;;;;;9.82;3.70;;;;;;;;;;6275088;22;20189;-90
2022/07/28 18:43:30;;;;;;;6.68;3.83;;;;;;;;;;6275187;22;20212;-89
2022/07/28 18:46:39;;;;;;;6.28;3.60;;;;;;;;;;6276312;22;20153;-90
2022/07/28 18:49:54;;;;;;;6.78;3.60;;;;;;;;;;6277834;22;20213;-91
2022/07/28 18:53:00;;;;;;;6.93;3.45;;;;;;;;;;6280598;22;20165;-91
2022/07/28 18:56:05;;;;;;;6.45;4.20;;;;;;;;;;6275045;22;20165;-88
2022/07/28 18:59:11;;;;;;;6.88;3.85;;;;;;;;;;6272957;22;20217;-90
2022/07/28 19:02:17;;;;;;;7.03;3.53;;;;;;;;;;6274913;22;20162;-90
2022/07/28 19:05:23;;;;;;;9.15;3.42;;;;;;;;;;6274375;22;20170;-90
2022/07/28 19:08:29;;;;;;;7.25;3.47;;;;;;;;;;6274901;22;20165;-90
2022/07/28 19:11:38;;;;;;;6.97;3.83;;;;;;;;;;6276075;22;20189;-88
2022/07/28 19:14:43;;;;;;;6.97;3.70;;;;;;;;;;6277189;22;20284;-90
2022/07/28 19:17:51;;;;;;;7.50;3.40;;;;;;;;;;6275149;22;20157;-91
2022/07/28 19:20:56;;;;;;;7.25;4.00;;;;;;;;;;6275028;22;20672;-90
2022/07/28 19:24:01;;;;;;;6.50;3.65;;;;;;;;;;6274704;22;20169;-90
2022/07/28 19:27:07;;;;;;;7.82;3.53;;;;;;;;;;6274679;22;20349;-90
2022/07/28 19:30:13;;;;;;;8.77;4.38;;;;;;;;;;6276077;22;20154;-90
2022/07/28 19:33:26;;;;;;;7.00;3.95;;;;;;;;;;6275880;22;20217;-90
2022/07/28 19:36:35;;;;;;;7.13;3.90;;;;;;;;;;6273229;22;20166;-91
2022/07/28 19:39:40;;;;;;;10.98;3.80;;;;;;;;;;6281580;22;20217;-89
2022/07/28 19:42:47;;;;;;;7.53;4.38;;;;;;;;;;6282044;22;20184;-90
2022/07/28 19:45:56;;;;;;;8.18;3.95;;;;;;;;;;6276403;22;20177;-89
2022/07/28 19:49:03;;;;;;;5.72;4.30;;;;;;;;;;6274928;22;20185;-90
2022/07/28 19:52:08;;;;;;;8.48;4.78;;;;;;;;;;6276285;22;20193;-90
2022/07/28 19:55:17;;;;;;;9.32;4.63;;;;;;;;;;6276500;22;20221;-91
2022/07/28 19:58:22;;;;;;;6.60;4.13;;;;;;;;;;6276997;22;20246;-91
2022/07/28 20:01:27;;;;;;;8.93;4.65;;;;;;;;;;6276989;22;20170;-90
2022/07/28 20:04:36;;;;;;;12.23;4.38;;;;;;;;;;6274809;22;20154;-90
2022/07/28 20:07:42;;;;;;;11.90;5.07;;;;;;;;;;6276551;22;20150;-91
2022/07/28 20:10:48;;;;;;;8.82;5.07;;;;;;;;;;6278628;22;20273;-91
2022/07/28 20:13:55;;;;;;;10.75;5.13;;;;;;;;;;6273788;22;20165;-90
2022/07/28 20:17:00;;;;;;;9.90;4.68;;;;;;;;;;6274712;22;20252;-91
2022/07/28 20:20:09;;;;;;;13.18;5.43;;;;;;;;;;6272664;22;20205;-90
2022/07/28 20:23:14;;;;;;;12.55;5.40;;;;;;;;;;6273398;22;20212;-90
2022/07/28 20:26:20;;;;;;;7.88;4.70;;;;;;;;;;6274442;22;20183;-91
2022/07/28 20:29:25;;;;;;;9.93;5.10;;;;;;;;;;6272520;22;20213;-90
2022/07/28 20:32:30;;;;;;;7.00;4.50;;;;;;;;;;6269874;22;20260;-89
2022/07/28 20:35:38;;;;;;;9.02;4.20;;;;;;;;;;6270428;22;20158;-89
2022/07/28 20:42:06;;;;;;;9.25;4.78;;;;;;;;;;6294339;22;20146;-90
2022/07/28 20:45:12;;;;;;;11.68;5.18;;;;;;;;;;6274876;22;20177;-90
2022/07/28 20:48:17;;;;;;;9.07;4.90;;;;;;;;;;6271232;22;20303;-90
2022/07/28 20:51:26;;;;;;;9.02;4.65;;;;;;;;;;6277188;22;20212;-90
2022/07/28 20:54:31;;;;;;;7.15;4.68;;;;;;;;;;6271945;22;20173;-89
2022/07/28 20:57:36;;;;;;;8.38;4.80;;;;;;;;;;6275268;22;20173;-89
2022/07/28 21:00:42;;;;;;;10.07;4.78;;;;;;;;;;6271652;22;20181;-92
2022/07/28 21:03:47;;;;;;;8.40;4.00;;;;;;;;;;6269081;22;20189;-90
2022/07/28 21:06:53;;;;;;;8.95;4.50;;;;;;;;;;6271310;22;20150;-91
2022/07/28 21:09:58;;;;;;;6.35;4.32;;;;;;;;;;6271285;22;20597;-90
2022/07/28 21:13:03;;;;;;;10.80;5.50;;;;;;;;;;6269207;22;20181;-90
2022/07/28 21:16:08;;;;;;;11.20;4.82;;;;;;;;;;6270729;22;20149;-89
2022/07/28 21:19:13;;;;;;;8.82;4.78;;;;;;;;;;6271444;22;20166;-90
2022/07/28 21:22:20;;;;;;;12.77;4.82;;;;;;;;;;6274115;22;20185;-90
2022/07/28 21:25:28;;;;;;;9.63;5.60;;;;;;;;;;6275076;22;20166;-91
2022/07/28 21:31:57;;;;;;;7.95;4.45;;;;;;;;;;6292736;22;20162;-91
2022/07/28 21:35:03;;;;;;;10.27;4.40;;;;;;;;;;6271939;22;20228;-89
2022/07/28 21:38:10;;;;;;;6.97;4.60;;;;;;;;;;6272171;22;20628;-90
2022/07/28 21:41:17;;;;;;;9.68;4.85;;;;;;;;;;6278894;22;20194;-90
2022/07/28 21:44:22;;;;;;;9.77;5.47;;;;;;;;;;6278267;22;20625;-90
2022/07/28 21:47:27;;;;;;;10.25;5.20;;;;;;;;;;6283231;22;20239;-90
2022/07/28 21:50:33;;;;;;;11.75;5.40;;;;;;;;;;6278999;22;20169;-90
2022/07/28 21:53:43;;;;;;;8.10;4.78;;;;;;;;;;6276654;22;20546;-89
2022/07/28 21:56:50;;;;;;;7.72;5.38;;;;;;;;;;6275107;22;20240;-90
2022/07/28 21:59:56;;;;;;;8.25;5.40;;;;;;;;;;6275901;22;20263;-90
2022/07/28 22:03:36;;;;;;;10.63;4.95;;;;;;;;;;6276727;22;20223;-88
2022/07/28 22:06:47;;;;;;;7.22;5.18;;;;;;;;;;6276253;22;20174;-91
2022/07/28 22:09:53;;;;;;;8.45;5.43;;;;;;;;;;6273414;22;20166;-89
2022/07/28 22:13:01;;;;;;;12.32;5.57;;;;;;;;;;6272309;22;20785;-88
2022/07/28 22:16:06;;;;;;;7.90;4.93;;;;;;;;;;6274574;22;20170;-90
2022/07/28 22:19:11;;;;;;;9.05;5.40;;;;;;;;;;6273917;22;20173;-92
2022/07/28 22:22:17;;;;;;;11.30;5.03;;;;;;;;;;6274363;22;20255;-91
2022/07/28 22:25:24;;;;;;;13.88;5.70;;;;;;;;;;6271159;22;20192;-91
2022/07/28 22:28:29;;;;;;;8.00;5.75;;;;;;;;;;6191868;22;20226;-90
2022/07/28 22:31:35;;;;;;;12.05;5.93;;;;;;;;;;6147000;23;20175;-90
2022/07/28 22:34:40;;;;;;;8.02;6.07;;;;;;;;;;6147819;23;20169;-91
2022/07/28 22:37:45;;;;;;;11.15;6.03;;;;;;;;;;6148189;23;20203;-90
2022/07/28 22:40:52;;;;;;;9.35;6.13;;;;;;;;;;6147972;23;20204;-91
2022/07/28 22:43:57;;;;;;;14.10;6.32;;;;;;;;;;6148166;23;20199;-91
2022/07/28 22:47:03;;;;;;;10.75;6.57;;;;;;;;;;6148769;23;20250;-90
2022/07/28 22:50:09;;;;;;;9.27;5.53;;;;;;;;;;6147981;23;20237;-91
2022/07/28 22:53:15;;;;;;;11.38;7.55;;;;;;;;;;6147031;23;20212;-92
2022/07/28 22:56:22;;;;;;;11.55;6.18;;;;;;;;;;6149156;23;20589;-89
2022/07/28 22:59:28;;;;;;;9.98;5.93;;;;;;;;;;6147876;23;20169;-89
2022/07/28 23:02:33;;;;;;;11.43;5.88;;;;;;;;;;6149147;23;20173;-89
2022/07/28 23:05:38;;;;;;;7.63;5.18;;;;;;;;;;6150236;23;20176;-91
2022/07/28 23:08:48;;;;;;;7.50;5.60;;;;;;;;;;6148530;23;20191;-91
2022/07/28 23:11:58;;;;;;;9.65;6.22;;;;;;;;;;6146671;23;20217;-90
2022/07/28 23:15:03;;;;;;;10.85;5.50;;;;;;;;;;6146308;23;20215;-89
2022/07/28 23:18:09;;;;;;;8.82;5.72;;;;;;;;;;6145310;23;20173;-90
2022/07/28 23:21:15;;;;;;;13.00;5.90;;;;;;;;;;6153677;23;20265;-92
2022/07/28 23:24:21;;;;;;;10.60;5.68;;;;;;;;;;6149561;23;20165;-89
2022/07/28 23:27:28;;;;;;;11.52;6.13;;;;;;;;;;6146584;23;20207;-91
2022/07/28 23:30:51;;;;;;;12.23;5.63;;;;;;;;;;6149947;23;20172;-90
2022/07/28 23:33:56;;;;;;;8.60;6.38;;;;;;;;;;6149973;23;20466;-90
2022/07/28 23:37:02;;;;;;;7.47;4.97;;;;;;;;;;6148466;23;20168;-90
2022/07/28 23:40:08;;;;;;;9.07;5.63;;;;;;;;;;6147221;23;20239;-89
2022/07/28 23:43:15;;;;;;;6.65;5.28;;;;;;;;;;6147610;23;20164;-91
2022/07/28 23:46:20;;;;;;;9.32;5.45;;;;;;;;;;6148838;23;20177;-89
2022/07/28 23:49:25;;;;;;;13.63;5.50;;;;;;;;;;6147693;23;20173;-91
2022/07/28 23:52:35;;;;;;;8.18;5.10;;;;;;;;;;6151365;23;20173;-88
2022/07/28 23:55:41;;;;;;;8.85;5.40;;;;;;;;;;6149052;23;20165;-91
2022/07/28 23:58:48;;;;;;;10.50;5.47;;;;;;;;;;6146559;23;20169;-90
